sensor_id;sensor_type;location;lat;lon;timestamp;P1;durP1;ratioP1;P2;durP2;ratioP2
71207;SDS011;58938;49.868;8.646;2022-10-17T00:00:39;12.05;;;6.03;;
71207;SDS011;58938;49.868;8.646;2022-10-17T00:03:05;14.02;;;5.18;;
71207;SDS011;58938;49.868;8.646;2022-10-17T00:05:31;9.87;;;5.30;;
71207;SDS011;58938;49.868;8.646;2022-10-17T00:07:57;11.50;;;5.45;;
71207;SDS011;58938;49.868;8.646;2022-10-17T00:10:23;7.28;;;4.68;;
71207;SDS011;58938;49.868;8.646;2022-10-17T00:12:50;12.52;;;5.25;;
71207;SDS011;58938;49.868;8.646;2022-10-17T00:15:17;11.37;;;5.37;;
71207;SDS011;58938;49.868;8.646;2022-10-17T00:17:44;8.60;;;4.68;;
71207;SDS011;58938;49.868;8.646;2022-10-17T00:20:11;9.15;;;5.45;;
71207;SDS011;58938;49.868;8.646;2022-10-17T00:22:37;10.57;;;4.57;;
71207;SDS011;58938;49.868;8.646;2022-10-17T00:25:03;8.57;;;5.53;;
71207;SDS011;58938;49.868;8.646;2022-10-17T00:27:35;12.87;;;4.77;;
71207;SDS011;58938;49.868;8.646;2022-10-17T00:30:02;11.85;;;4.47;;
71207;SDS011;58938;49.868;8.646;2022-10-17T00:32:29;9.95;;;4.95;;
71207;SDS011;58938;49.868;8.646;2022-10-17T00:34:55;8.63;;;4.55;;
71207;SDS011;58938;49.868;8.646;2022-10-17T00:37:22;9.07;;;4.50;;
71207;SDS011;58938;49.868;8.646;2022-10-17T00:39:48;11.35;;;4.15;;
71207;SDS011;58938;49.868;8.646;2022-10-17T00:42:14;9.57;;;4.25;;
71207;SDS011;58938;49.868;8.646;2022-10-17T00:47:12;10.43;;;4.30;;
71207;SDS011;58938;49.868;8.646;2022-10-17T00:49:39;8.32;;;4.40;;
71207;SDS011;58938;49.868;8.646;2022-10-17T00:52:07;8.45;;;4.55;;
71207;SDS011;58938;49.868;8.646;2022-10-17T00:54:40;11.17;;;4.60;;
71207;SDS011;58938;49.868;8.646;2022-10-17T00:57:09;15.80;;;9.52;;
71207;SDS011;58938;49.868;8.646;2022-10-17T00:59:37;13.35;;;7.65;;
71207;SDS011;58938;49.868;8.646;2022-10-17T01:02:07;11.60;;;6.90;;
71207;SDS011;58938;49.868;8.646;2022-10-17T01:04:37;15.95;;;6.30;;
71207;SDS011;58938;49.868;8.646;2022-10-17T01:07:05;12.20;;;5.70;;
71207;SDS011;58938;49.868;8.646;2022-10-17T01:09:30;11.50;;;5.05;;
71207;SDS011;58938;49.868;8.646;2022-10-17T01:14:40;9.75;;;5.93;;
71207;SDS011;58938;49.868;8.646;2022-10-17T01:17:34;11.75;;;5.32;;
71207;SDS011;58938;49.868;8.646;2022-10-17T01:31:36;15.45;;;5.03;;
71207;SDS011;58938;49.868;8.646;2022-10-17T01:34:04;11.65;;;5.10;;
71207;SDS011;58938;49.868;8.646;2022-10-17T01:42:02;9.88;;;5.15;;
71207;SDS011;58938;49.868;8.646;2022-10-17T01:47:18;12.98;;;5.20;;
71207;SDS011;58938;49.868;8.646;2022-10-17T01:49:47;8.80;;;4.40;;
71207;SDS011;58938;49.868;8.646;2022-10-17T01:52:21;8.73;;;5.00;;
71207;SDS011;58938;49.868;8.646;2022-10-17T01:54:56;8.10;;;5.00;;
71207;SDS011;58938;49.868;8.646;2022-10-17T01:57:41;9.07;;;4.72;;
71207;SDS011;58938;49.868;8.646;2022-10-17T02:00:20;10.80;;;4.50;;
71207;SDS011;58938;49.868;8.646;2022-10-17T02:02:48;12.13;;;4.40;;
71207;SDS011;58938;49.868;8.646;2022-10-17T02:05:19;9.55;;;4.28;;
71207;SDS011;58938;49.868;8.646;2022-10-17T02:07:48;11.90;;;4.15;;
71207;SDS011;58938;49.868;8.646;2022-10-17T02:13:16;10.48;;;4.18;;
71207;SDS011;58938;49.868;8.646;2022-10-17T02:21:30;8.95;;;4.70;;
71207;SDS011;58938;49.868;8.646;2022-10-17T02:26:54;8.93;;;4.30;;
71207;SDS011;58938;49.868;8.646;2022-10-17T02:29:30;11.90;;;4.30;;
71207;SDS011;58938;49.868;8.646;2022-10-17T02:32:10;13.05;;;5.15;;
71207;SDS011;58938;49.868;8.646;2022-10-17T02:35:01;11.50;;;4.55;;
71207;SDS011;58938;49.868;8.646;2022-10-17T02:37:29;8.60;;;4.33;;
71207;SDS011;58938;49.868;8.646;2022-10-17T02:39:56;9.57;;;4.03;;
71207;SDS011;58938;49.868;8.646;2022-10-17T02:42:24;10.23;;;4.57;;
71207;SDS011;58938;49.868;8.646;2022-10-17T02:44:52;12.32;;;4.45;;
71207;SDS011;58938;49.868;8.646;2022-10-17T02:50:14;8.03;;;4.57;;
71207;SDS011;58938;49.868;8.646;2022-10-17T02:52:56;9.77;;;4.15;;
71207;SDS011;58938;49.868;8.646;2022-10-17T02:55:29;7.47;;;4.30;;
71207;SDS011;58938;49.868;8.646;2022-10-17T02:57:58;10.40;;;4.28;;
71207;SDS011;58938;49.868;8.646;2022-10-17T03:00:28;10.50;;;4.50;;
71207;SDS011;58938;49.868;8.646;2022-10-17T03:02:55;9.85;;;4.10;;
71207;SDS011;58938;49.868;8.646;2022-10-17T03:05:21;12.10;;;4.85;;
71207;SDS011;58938;49.868;8.646;2022-10-17T03:07:49;10.67;;;4.90;;
71207;SDS011;58938;49.868;8.646;2022-10-17T03:10:15;8.20;;;4.50;;
71207;SDS011;58938;49.868;8.646;2022-10-17T03:12:41;8.07;;;4.25;;
71207;SDS011;58938;49.868;8.646;2022-10-17T03:15:07;10.67;;;4.60;;
71207;SDS011;58938;49.868;8.646;2022-10-17T03:17:33;8.63;;;4.70;;
71207;SDS011;58938;49.868;8.646;2022-10-17T03:19:59;13.63;;;4.88;;
71207;SDS011;58938;49.868;8.646;2022-10-17T03:22:25;9.70;;;4.90;;
71207;SDS011;58938;49.868;8.646;2022-10-17T03:24:50;13.50;;;5.00;;
71207;SDS011;58938;49.868;8.646;2022-10-17T03:27:16;10.13;;;4.70;;
71207;SDS011;58938;49.868;8.646;2022-10-17T03:29:41;10.45;;;4.65;;
71207;SDS011;58938;49.868;8.646;2022-10-17T03:32:07;10.33;;;4.63;;
71207;SDS011;58938;49.868;8.646;2022-10-17T03:34:34;12.27;;;5.53;;
71207;SDS011;58938;49.868;8.646;2022-10-17T03:36:59;11.68;;;5.43;;
71207;SDS011;58938;49.868;8.646;2022-10-17T03:39:25;10.70;;;4.80;;
71207;SDS011;58938;49.868;8.646;2022-10-17T03:41:50;10.57;;;4.87;;
71207;SDS011;58938;49.868;8.646;2022-10-17T03:44:16;15.25;;;5.10;;
71207;SDS011;58938;49.868;8.646;2022-10-17T03:46:41;15.93;;;7.77;;
71207;SDS011;58938;49.868;8.646;2022-10-17T03:49:08;15.97;;;6.20;;
71207;SDS011;58938;49.868;8.646;2022-10-17T03:51:34;15.20;;;6.33;;
71207;SDS011;58938;49.868;8.646;2022-10-17T03:53:59;8.27;;;5.07;;
71207;SDS011;58938;49.868;8.646;2022-10-17T03:56:26;11.97;;;6.23;;
71207;SDS011;58938;49.868;8.646;2022-10-17T03:58:52;13.20;;;4.97;;
71207;SDS011;58938;49.868;8.646;2022-10-17T04:01:19;8.85;;;5.15;;
71207;SDS011;58938;49.868;8.646;2022-10-17T04:03:51;8.55;;;4.82;;
71207;SDS011;58938;49.868;8.646;2022-10-17T04:06:20;11.03;;;5.03;;
71207;SDS011;58938;49.868;8.646;2022-10-17T04:08:46;10.85;;;5.43;;
71207;SDS011;58938;49.868;8.646;2022-10-17T04:11:13;11.75;;;5.05;;
71207;SDS011;58938;49.868;8.646;2022-10-17T04:13:40;8.80;;;4.53;;
71207;SDS011;58938;49.868;8.646;2022-10-17T04:16:07;8.33;;;4.70;;
71207;SDS011;58938;49.868;8.646;2022-10-17T04:18:34;13.20;;;5.35;;
71207;SDS011;58938;49.868;8.646;2022-10-17T04:21:00;11.97;;;4.70;;
71207;SDS011;58938;49.868;8.646;2022-10-17T04:23:27;11.18;;;5.32;;
71207;SDS011;58938;49.868;8.646;2022-10-17T04:25:56;11.43;;;4.87;;
71207;SDS011;58938;49.868;8.646;2022-10-17T04:28:23;8.83;;;5.23;;
71207;SDS011;58938;49.868;8.646;2022-10-17T04:31:01;12.05;;;4.97;;
71207;SDS011;58938;49.868;8.646;2022-10-17T04:33:28;13.80;;;5.28;;
71207;SDS011;58938;49.868;8.646;2022-10-17T04:36:04;12.18;;;5.30;;
71207;SDS011;58938;49.868;8.646;2022-10-17T04:38:31;10.10;;;5.27;;
71207;SDS011;58938;49.868;8.646;2022-10-17T04:41:02;9.50;;;5.15;;
71207;SDS011;58938;49.868;8.646;2022-10-17T04:43:29;12.02;;;5.43;;
71207;SDS011;58938;49.868;8.646;2022-10-17T04:45:56;10.52;;;5.30;;
71207;SDS011;58938;49.868;8.646;2022-10-17T04:48:23;13.50;;;6.75;;
71207;SDS011;58938;49.868;8.646;2022-10-17T04:50:55;11.73;;;6.17;;
71207;SDS011;58938;49.868;8.646;2022-10-17T04:53:22;13.18;;;6.25;;
71207;SDS011;58938;49.868;8.646;2022-10-17T04:55:48;13.52;;;5.80;;
71207;SDS011;58938;49.868;8.646;2022-10-17T04:58:16;12.07;;;5.75;;
71207;SDS011;58938;49.868;8.646;2022-10-17T05:00:45;11.90;;;7.33;;
71207;SDS011;58938;49.868;8.646;2022-10-17T05:03:11;13.02;;;6.45;;
71207;SDS011;58938;49.868;8.646;2022-10-17T05:05:37;12.30;;;6.67;;
71207;SDS011;58938;49.868;8.646;2022-10-17T05:08:04;14.00;;;6.88;;
71207;SDS011;58938;49.868;8.646;2022-10-17T05:10:34;13.20;;;6.93;;
71207;SDS011;58938;49.868;8.646;2022-10-17T05:13:04;13.00;;;6.30;;
71207;SDS011;58938;49.868;8.646;2022-10-17T05:15:30;12.38;;;6.63;;
71207;SDS011;58938;49.868;8.646;2022-10-17T05:17:56;17.00;;;8.53;;
71207;SDS011;58938;49.868;8.646;2022-10-17T05:20:22;13.43;;;7.30;;
71207;SDS011;58938;49.868;8.646;2022-10-17T05:22:48;16.48;;;7.07;;
71207;SDS011;58938;49.868;8.646;2022-10-17T05:25:13;12.97;;;6.97;;
71207;SDS011;58938;49.868;8.646;2022-10-17T05:27:39;12.45;;;6.75;;
71207;SDS011;58938;49.868;8.646;2022-10-17T05:30:05;13.70;;;7.83;;
71207;SDS011;58938;49.868;8.646;2022-10-17T05:32:31;12.65;;;6.55;;
71207;SDS011;58938;49.868;8.646;2022-10-17T05:34:57;15.23;;;6.43;;
71207;SDS011;58938;49.868;8.646;2022-10-17T05:37:22;12.57;;;6.20;;
71207;SDS011;58938;49.868;8.646;2022-10-17T05:39:48;14.13;;;6.60;;
71207;SDS011;58938;49.868;8.646;2022-10-17T05:42:13;12.82;;;6.50;;
71207;SDS011;58938;49.868;8.646;2022-10-17T05:44:39;15.77;;;7.57;;
71207;SDS011;58938;49.868;8.646;2022-10-17T05:47:05;14.57;;;6.75;;
71207;SDS011;58938;49.868;8.646;2022-10-17T05:49:32;14.23;;;7.32;;
71207;SDS011;58938;49.868;8.646;2022-10-17T05:51:59;14.77;;;7.40;;
71207;SDS011;58938;49.868;8.646;2022-10-17T05:54:25;18.77;;;7.72;;
71207;SDS011;58938;49.868;8.646;2022-10-17T05:56:52;18.73;;;6.95;;
71207;SDS011;58938;49.868;8.646;2022-10-17T05:59:18;17.87;;;7.57;;
71207;SDS011;58938;49.868;8.646;2022-10-17T06:01:43;15.25;;;7.22;;
71207;SDS011;58938;49.868;8.646;2022-10-17T06:04:09;13.03;;;7.10;;
71207;SDS011;58938;49.868;8.646;2022-10-17T06:06:35;11.65;;;6.93;;
71207;SDS011;58938;49.868;8.646;2022-10-17T06:09:02;14.10;;;6.63;;
71207;SDS011;58938;49.868;8.646;2022-10-17T06:11:28;12.87;;;6.43;;
71207;SDS011;58938;49.868;8.646;2022-10-17T06:13:54;14.23;;;6.28;;
71207;SDS011;58938;49.868;8.646;2022-10-17T06:16:19;13.93;;;6.30;;
71207;SDS011;58938;49.868;8.646;2022-10-17T06:18:45;10.70;;;6.35;;
71207;SDS011;58938;49.868;8.646;2022-10-17T06:21:11;13.33;;;6.67;;
71207;SDS011;58938;49.868;8.646;2022-10-17T06:23:39;11.40;;;6.70;;
71207;SDS011;58938;49.868;8.646;2022-10-17T06:26:05;10.27;;;5.80;;
71207;SDS011;58938;49.868;8.646;2022-10-17T06:28:30;13.10;;;6.23;;
71207;SDS011;58938;49.868;8.646;2022-10-17T06:30:56;10.57;;;5.95;;
71207;SDS011;58938;49.868;8.646;2022-10-17T06:33:22;14.73;;;7.63;;
71207;SDS011;58938;49.868;8.646;2022-10-17T06:35:53;18.02;;;7.80;;
71207;SDS011;58938;49.868;8.646;2022-10-17T06:38:20;16.52;;;6.75;;
71207;SDS011;58938;49.868;8.646;2022-10-17T06:40:47;17.30;;;7.33;;
71207;SDS011;58938;49.868;8.646;2022-10-17T06:43:13;16.13;;;6.78;;
71207;SDS011;58938;49.868;8.646;2022-10-17T06:45:44;14.98;;;6.40;;
71207;SDS011;58938;49.868;8.646;2022-10-17T06:48:11;16.85;;;7.30;;
71207;SDS011;58938;49.868;8.646;2022-10-17T06:50:37;14.53;;;7.10;;
71207;SDS011;58938;49.868;8.646;2022-10-17T06:53:03;18.33;;;7.75;;
71207;SDS011;58938;49.868;8.646;2022-10-17T06:55:32;12.45;;;7.10;;
71207;SDS011;58938;49.868;8.646;2022-10-17T06:57:58;13.77;;;6.80;;
71207;SDS011;58938;49.868;8.646;2022-10-17T07:00:23;13.43;;;7.18;;
71207;SDS011;58938;49.868;8.646;2022-10-17T07:02:50;17.03;;;6.57;;
71207;SDS011;58938;49.868;8.646;2022-10-17T07:05:17;17.00;;;7.35;;
71207;SDS011;58938;49.868;8.646;2022-10-17T07:07:43;17.10;;;7.65;;
71207;SDS011;58938;49.868;8.646;2022-10-17T07:10:09;18.50;;;7.63;;
71207;SDS011;58938;49.868;8.646;2022-10-17T07:12:35;24.10;;;7.67;;
71207;SDS011;58938;49.868;8.646;2022-10-17T07:15:01;17.60;;;7.20;;
71207;SDS011;58938;49.868;8.646;2022-10-17T07:17:28;12.77;;;7.03;;
71207;SDS011;58938;49.868;8.646;2022-10-17T07:19:54;15.55;;;8.43;;
71207;SDS011;58938;49.868;8.646;2022-10-17T07:22:20;18.97;;;7.70;;
71207;SDS011;58938;49.868;8.646;2022-10-17T07:24:45;20.60;;;7.95;;
71207;SDS011;58938;49.868;8.646;2022-10-17T07:27:11;19.13;;;7.90;;
71207;SDS011;58938;49.868;8.646;2022-10-17T07:29:38;24.50;;;8.48;;
71207;SDS011;58938;49.868;8.646;2022-10-17T07:32:04;17.87;;;7.83;;
71207;SDS011;58938;49.868;8.646;2022-10-17T07:34:32;17.30;;;7.10;;
71207;SDS011;58938;49.868;8.646;2022-10-17T07:36:58;17.00;;;7.78;;
71207;SDS011;58938;49.868;8.646;2022-10-17T07:39:24;18.17;;;7.73;;
71207;SDS011;58938;49.868;8.646;2022-10-17T07:41:50;14.65;;;7.10;;
71207;SDS011;58938;49.868;8.646;2022-10-17T07:44:15;18.67;;;6.90;;
71207;SDS011;58938;49.868;8.646;2022-10-17T07:46:41;14.15;;;6.75;;
71207;SDS011;58938;49.868;8.646;2022-10-17T07:49:06;12.10;;;5.90;;
71207;SDS011;58938;49.868;8.646;2022-10-17T07:51:32;11.40;;;6.33;;
71207;SDS011;58938;49.868;8.646;2022-10-17T07:53:58;16.58;;;6.53;;
71207;SDS011;58938;49.868;8.646;2022-10-17T07:56:23;16.20;;;7.43;;
71207;SDS011;58938;49.868;8.646;2022-10-17T07:58:49;11.25;;;6.18;;
71207;SDS011;58938;49.868;8.646;2022-10-17T08:01:15;15.27;;;6.95;;
71207;SDS011;58938;49.868;8.646;2022-10-17T08:03:44;11.83;;;6.33;;
71207;SDS011;58938;49.868;8.646;2022-10-17T08:06:12;13.85;;;6.00;;
71207;SDS011;58938;49.868;8.646;2022-10-17T08:08:38;13.23;;;6.13;;
71207;SDS011;58938;49.868;8.646;2022-10-17T08:11:06;13.70;;;6.32;;
71207;SDS011;58938;49.868;8.646;2022-10-17T08:13:33;13.60;;;6.75;;
71207;SDS011;58938;49.868;8.646;2022-10-17T08:16:00;12.57;;;6.43;;
71207;SDS011;58938;49.868;8.646;2022-10-17T08:18:27;14.57;;;6.57;;
71207;SDS011;58938;49.868;8.646;2022-10-17T08:20:53;14.65;;;5.80;;
71207;SDS011;58938;49.868;8.646;2022-10-17T08:23:19;9.32;;;6.43;;
71207;SDS011;58938;49.868;8.646;2022-10-17T08:25:45;14.67;;;5.67;;
71207;SDS011;58938;49.868;8.646;2022-10-17T08:28:10;12.60;;;6.07;;
71207;SDS011;58938;49.868;8.646;2022-10-17T08:30:36;13.38;;;6.10;;
71207;SDS011;58938;49.868;8.646;2022-10-17T08:33:01;11.03;;;6.03;;
71207;SDS011;58938;49.868;8.646;2022-10-17T08:35:27;13.77;;;6.43;;
71207;SDS011;58938;49.868;8.646;2022-10-17T08:37:53;11.37;;;5.80;;
71207;SDS011;58938;49.868;8.646;2022-10-17T08:40:23;11.33;;;5.40;;
71207;SDS011;58938;49.868;8.646;2022-10-17T08:48:01;16.40;;;5.40;;
71207;SDS011;58938;49.868;8.646;2022-10-17T08:50:42;14.27;;;6.28;;
71207;SDS011;58938;49.868;8.646;2022-10-17T08:53:27;14.10;;;6.07;;
71207;SDS011;58938;49.868;8.646;2022-10-17T08:56:12;10.13;;;6.05;;
71207;SDS011;58938;49.868;8.646;2022-10-17T08:58:44;12.90;;;5.72;;
71207;SDS011;58938;49.868;8.646;2022-10-17T09:01:13;12.02;;;5.13;;
71207;SDS011;58938;49.868;8.646;2022-10-17T09:06:38;11.37;;;5.00;;
71207;SDS011;58938;49.868;8.646;2022-10-17T09:17:51;11.32;;;5.90;;
71207;SDS011;58938;49.868;8.646;2022-10-17T09:20:23;11.37;;;4.20;;
71207;SDS011;58938;49.868;8.646;2022-10-17T09:25:16;21.92;;;5.28;;
71207;SDS011;58938;49.868;8.646;2022-10-17T09:27:45;16.53;;;5.53;;
71207;SDS011;58938;49.868;8.646;2022-10-17T09:33:10;11.23;;;5.00;;
71207;SDS011;58938;49.868;8.646;2022-10-17T09:35:37;15.23;;;4.50;;
71207;SDS011;58938;49.868;8.646;2022-10-17T09:38:05;13.50;;;4.28;;
71207;SDS011;58938;49.868;8.646;2022-10-17T09:40:38;15.27;;;5.33;;
71207;SDS011;58938;49.868;8.646;2022-10-17T09:43:04;9.25;;;4.35;;
71207;SDS011;58938;49.868;8.646;2022-10-17T09:45:36;10.13;;;5.05;;
71207;SDS011;58938;49.868;8.646;2022-10-17T09:48:29;10.40;;;4.00;;
71207;SDS011;58938;49.868;8.646;2022-10-17T09:51:03;12.50;;;5.50;;
71207;SDS011;58938;49.868;8.646;2022-10-17T09:53:32;18.03;;;4.83;;
71207;SDS011;58938;49.868;8.646;2022-10-17T09:56:14;10.10;;;4.95;;
71207;SDS011;58938;49.868;8.646;2022-10-17T09:58:45;24.00;;;6.70;;
71207;SDS011;58938;49.868;8.646;2022-10-17T10:01:18;9.13;;;4.53;;
71207;SDS011;58938;49.868;8.646;2022-10-17T10:03:46;16.20;;;5.25;;
71207;SDS011;58938;49.868;8.646;2022-10-17T10:06:14;12.50;;;5.53;;
71207;SDS011;58938;49.868;8.646;2022-10-17T10:11:18;19.42;;;4.75;;
71207;SDS011;58938;49.868;8.646;2022-10-17T10:13:48;15.55;;;5.10;;
71207;SDS011;58938;49.868;8.646;2022-10-17T10:16:22;9.30;;;4.10;;
71207;SDS011;58938;49.868;8.646;2022-10-17T10:18:55;14.10;;;4.50;;
71207;SDS011;58938;49.868;8.646;2022-10-17T10:21:25;17.60;;;5.20;;
71207;SDS011;58938;49.868;8.646;2022-10-17T10:24:02;15.63;;;3.97;;
71207;SDS011;58938;49.868;8.646;2022-10-17T10:26:38;12.98;;;3.63;;
71207;SDS011;58938;49.868;8.646;2022-10-17T10:29:27;20.40;;;4.97;;
71207;SDS011;58938;49.868;8.646;2022-10-17T10:35:17;17.52;;;4.60;;
71207;SDS011;58938;49.868;8.646;2022-10-17T10:37:58;15.38;;;4.57;;
71207;SDS011;58938;49.868;8.646;2022-10-17T10:42:55;13.70;;;4.23;;
71207;SDS011;58938;49.868;8.646;2022-10-17T10:47:54;14.48;;;4.38;;
71207;SDS011;58938;49.868;8.646;2022-10-17T11:01:20;11.35;;;3.83;;
71207;SDS011;58938;49.868;8.646;2022-10-17T11:04:03;9.13;;;3.38;;
71207;SDS011;58938;49.868;8.646;2022-10-17T11:06:34;9.02;;;3.50;;
71207;SDS011;58938;49.868;8.646;2022-10-17T11:11:33;15.18;;;3.88;;
71207;SDS011;58938;49.868;8.646;2022-10-17T11:14:10;12.27;;;3.40;;
71207;SDS011;58938;49.868;8.646;2022-10-17T11:19:36;14.63;;;4.53;;
71207;SDS011;58938;49.868;8.646;2022-10-17T11:22:31;10.93;;;3.97;;
71207;SDS011;58938;49.868;8.646;2022-10-17T11:27:52;10.60;;;3.95;;
71207;SDS011;58938;49.868;8.646;2022-10-17T11:30:17;9.90;;;4.60;;
71207;SDS011;58938;49.868;8.646;2022-10-17T11:32:46;11.93;;;3.72;;
71207;SDS011;58938;49.868;8.646;2022-10-17T11:35:24;13.85;;;3.40;;
71207;SDS011;58938;49.868;8.646;2022-10-17T11:40:45;15.07;;;4.05;;
71207;SDS011;58938;49.868;8.646;2022-10-17T11:43:19;18.80;;;4.10;;
71207;SDS011;58938;49.868;8.646;2022-10-17T11:45:52;10.20;;;3.15;;
71207;SDS011;58938;49.868;8.646;2022-10-17T11:48:34;10.10;;;3.75;;
71207;SDS011;58938;49.868;8.646;2022-10-17T11:51:07;7.63;;;3.40;;
71207;SDS011;58938;49.868;8.646;2022-10-17T11:53:45;14.00;;;5.15;;
71207;SDS011;58938;49.868;8.646;2022-10-17T11:56:12;12.13;;;4.10;;
71207;SDS011;58938;49.868;8.646;2022-10-17T11:58:44;17.23;;;4.63;;
71207;SDS011;58938;49.868;8.646;2022-10-17T12:01:29;9.32;;;3.47;;
71207;SDS011;58938;49.868;8.646;2022-10-17T12:06:58;17.55;;;4.22;;
71207;SDS011;58938;49.868;8.646;2022-10-17T12:09:40;13.17;;;4.73;;
71207;SDS011;58938;49.868;8.646;2022-10-17T12:12:46;19.52;;;4.35;;
71207;SDS011;58938;49.868;8.646;2022-10-17T12:17:37;10.60;;;3.63;;
71207;SDS011;58938;49.868;8.646;2022-10-17T12:25:24;16.83;;;3.95;;
71207;SDS011;58938;49.868;8.646;2022-10-17T12:28:09;6.93;;;3.58;;
71207;SDS011;58938;49.868;8.646;2022-10-17T12:30:54;16.58;;;3.97;;
71207;SDS011;58938;49.868;8.646;2022-10-17T12:33:23;10.45;;;3.60;;
71207;SDS011;58938;49.868;8.646;2022-10-17T12:38:47;10.07;;;3.95;;
71207;SDS011;58938;49.868;8.646;2022-10-17T12:52:20;23.65;;;5.43;;
71207;SDS011;58938;49.868;8.646;2022-10-17T12:54:52;15.83;;;4.60;;
71207;SDS011;58938;49.868;8.646;2022-10-17T13:03:19;9.65;;;3.88;;
71207;SDS011;58938;49.868;8.646;2022-10-17T13:05:49;12.63;;;4.13;;
71207;SDS011;58938;49.868;8.646;2022-10-17T13:08:18;11.23;;;4.10;;
71207;SDS011;58938;49.868;8.646;2022-10-17T13:10:48;8.70;;;3.78;;
71207;SDS011;58938;49.868;8.646;2022-10-17T13:13:20;10.73;;;4.00;;
71207;SDS011;58938;49.868;8.646;2022-10-17T13:15:50;7.30;;;3.30;;
71207;SDS011;58938;49.868;8.646;2022-10-17T13:18:22;12.32;;;3.20;;
71207;SDS011;58938;49.868;8.646;2022-10-17T13:21:06;9.37;;;3.83;;
71207;SDS011;58938;49.868;8.646;2022-10-17T13:23:39;13.52;;;3.80;;
71207;SDS011;58938;49.868;8.646;2022-10-17T13:26:15;10.07;;;4.28;;
71207;SDS011;58938;49.868;8.646;2022-10-17T13:28:42;7.63;;;3.00;;
71207;SDS011;58938;49.868;8.646;2022-10-17T13:31:27;5.57;;;2.92;;
71207;SDS011;58938;49.868;8.646;2022-10-17T13:33:56;6.72;;;3.47;;
71207;SDS011;58938;49.868;8.646;2022-10-17T13:36:23;8.00;;;3.83;;
71207;SDS011;58938;49.868;8.646;2022-10-17T13:38:50;8.57;;;3.47;;
71207;SDS011;58938;49.868;8.646;2022-10-17T13:41:16;9.37;;;3.87;;
71207;SDS011;58938;49.868;8.646;2022-10-17T13:43:46;9.82;;;5.07;;
71207;SDS011;58938;49.868;8.646;2022-10-17T13:46:16;7.35;;;3.55;;
71207;SDS011;58938;49.868;8.646;2022-10-17T13:48:49;17.15;;;4.68;;
71207;SDS011;58938;49.868;8.646;2022-10-17T13:51:14;15.10;;;4.43;;
71207;SDS011;58938;49.868;8.646;2022-10-17T13:53:40;11.52;;;4.10;;
71207;SDS011;58938;49.868;8.646;2022-10-17T13:56:24;19.07;;;5.17;;
71207;SDS011;58938;49.868;8.646;2022-10-17T13:58:55;13.32;;;4.28;;
71207;SDS011;58938;49.868;8.646;2022-10-17T14:01:24;13.88;;;4.85;;
71207;SDS011;58938;49.868;8.646;2022-10-17T14:03:51;9.75;;;3.95;;
71207;SDS011;58938;49.868;8.646;2022-10-17T14:13:54;12.25;;;3.83;;
71207;SDS011;58938;49.868;8.646;2022-10-17T14:16:21;9.20;;;3.83;;
71207;SDS011;58938;49.868;8.646;2022-10-17T14:21:53;10.03;;;3.83;;
71207;SDS011;58938;49.868;8.646;2022-10-17T14:26:50;6.97;;;4.00;;
71207;SDS011;58938;49.868;8.646;2022-10-17T14:31:55;15.25;;;4.03;;
71207;SDS011;58938;49.868;8.646;2022-10-17T14:34:31;10.35;;;3.50;;
71207;SDS011;58938;49.868;8.646;2022-10-17T14:36:59;9.77;;;3.83;;
71207;SDS011;58938;49.868;8.646;2022-10-17T14:39:26;10.07;;;4.47;;
71207;SDS011;58938;49.868;8.646;2022-10-17T14:41:53;7.95;;;4.00;;
71207;SDS011;58938;49.868;8.646;2022-10-17T14:44:26;8.52;;;4.55;;
71207;SDS011;58938;49.868;8.646;2022-10-17T14:46:55;10.63;;;4.32;;
71207;SDS011;58938;49.868;8.646;2022-10-17T14:49:37;7.60;;;4.13;;
71207;SDS011;58938;49.868;8.646;2022-10-17T14:54:42;10.25;;;4.22;;
71207;SDS011;58938;49.868;8.646;2022-10-17T14:57:14;7.97;;;4.03;;
71207;SDS011;58938;49.868;8.646;2022-10-17T14:59:49;9.73;;;3.85;;
71207;SDS011;58938;49.868;8.646;2022-10-17T15:02:15;10.20;;;4.53;;
71207;SDS011;58938;49.868;8.646;2022-10-17T15:04:41;12.37;;;5.13;;
71207;SDS011;58938;49.868;8.646;2022-10-17T15:07:08;7.90;;;3.97;;
71207;SDS011;58938;49.868;8.646;2022-10-17T15:09:37;9.75;;;4.07;;
71207;SDS011;58938;49.868;8.646;2022-10-17T15:12:03;7.40;;;4.27;;
71207;SDS011;58938;49.868;8.646;2022-10-17T15:14:35;8.75;;;4.07;;
71207;SDS011;58938;49.868;8.646;2022-10-17T15:17:01;10.90;;;4.20;;
71207;SDS011;58938;49.868;8.646;2022-10-17T15:19:26;10.67;;;4.20;;
71207;SDS011;58938;49.868;8.646;2022-10-17T15:21:52;11.63;;;4.93;;
71207;SDS011;58938;49.868;8.646;2022-10-17T15:24:17;11.83;;;5.70;;
71207;SDS011;58938;49.868;8.646;2022-10-17T15:26:43;8.03;;;4.10;;
71207;SDS011;58938;49.868;8.646;2022-10-17T15:29:09;10.10;;;4.30;;
71207;SDS011;58938;49.868;8.646;2022-10-17T15:31:39;8.35;;;4.35;;
71207;SDS011;58938;49.868;8.646;2022-10-17T15:34:05;8.03;;;5.47;;
71207;SDS011;58938;49.868;8.646;2022-10-17T15:36:49;10.52;;;5.07;;
71207;SDS011;58938;49.868;8.646;2022-10-17T15:39:16;9.37;;;5.17;;
71207;SDS011;58938;49.868;8.646;2022-10-17T15:41:41;10.18;;;4.18;;
71207;SDS011;58938;49.868;8.646;2022-10-17T15:44:08;13.57;;;4.70;;
71207;SDS011;58938;49.868;8.646;2022-10-17T15:46:33;9.97;;;4.43;;
71207;SDS011;58938;49.868;8.646;2022-10-17T15:49:00;9.05;;;4.60;;
71207;SDS011;58938;49.868;8.646;2022-10-17T15:51:27;11.23;;;4.50;;
71207;SDS011;58938;49.868;8.646;2022-10-17T15:53:53;14.77;;;5.73;;
71207;SDS011;58938;49.868;8.646;2022-10-17T15:56:22;7.60;;;4.50;;
71207;SDS011;58938;49.868;8.646;2022-10-17T15:58:51;8.60;;;4.55;;
71207;SDS011;58938;49.868;8.646;2022-10-17T16:01:21;7.65;;;4.10;;
71207;SDS011;58938;49.868;8.646;2022-10-17T16:03:49;9.57;;;5.03;;
71207;SDS011;58938;49.868;8.646;2022-10-17T16:06:16;11.75;;;4.45;;
71207;SDS011;58938;49.868;8.646;2022-10-17T16:08:42;10.30;;;4.25;;
71207;SDS011;58938;49.868;8.646;2022-10-17T16:11:11;11.85;;;5.22;;
71207;SDS011;58938;49.868;8.646;2022-10-17T16:13:41;10.57;;;4.50;;
71207;SDS011;58938;49.868;8.646;2022-10-17T16:16:10;14.18;;;5.38;;
71207;SDS011;58938;49.868;8.646;2022-10-17T16:18:36;11.57;;;5.30;;
71207;SDS011;58938;49.868;8.646;2022-10-17T16:21:02;12.95;;;5.32;;
71207;SDS011;58938;49.868;8.646;2022-10-17T16:23:28;10.40;;;4.97;;
71207;SDS011;58938;49.868;8.646;2022-10-17T16:25:55;11.57;;;5.05;;
71207;SDS011;58938;49.868;8.646;2022-10-17T16:28:21;11.00;;;5.55;;
71207;SDS011;58938;49.868;8.646;2022-10-17T16:30:46;9.18;;;4.80;;
71207;SDS011;58938;49.868;8.646;2022-10-17T16:33:13;10.35;;;4.80;;
71207;SDS011;58938;49.868;8.646;2022-10-17T16:35:39;11.97;;;4.93;;
71207;SDS011;58938;49.868;8.646;2022-10-17T16:38:06;12.23;;;5.38;;
71207;SDS011;58938;49.868;8.646;2022-10-17T16:40:32;12.63;;;5.07;;
71207;SDS011;58938;49.868;8.646;2022-10-17T16:42:57;10.67;;;5.67;;
71207;SDS011;58938;49.868;8.646;2022-10-17T16:45:23;11.73;;;5.03;;
71207;SDS011;58938;49.868;8.646;2022-10-17T16:47:49;10.68;;;5.15;;
71207;SDS011;58938;49.868;8.646;2022-10-17T16:50:14;9.53;;;4.43;;
71207;SDS011;58938;49.868;8.646;2022-10-17T16:52:40;8.50;;;4.97;;
71207;SDS011;58938;49.868;8.646;2022-10-17T16:55:06;10.63;;;4.97;;
71207;SDS011;58938;49.868;8.646;2022-10-17T16:57:33;9.32;;;5.50;;
71207;SDS011;58938;49.868;8.646;2022-10-17T16:59:59;12.37;;;5.40;;
71207;SDS011;58938;49.868;8.646;2022-10-17T17:02:25;10.73;;;5.68;;
71207;SDS011;58938;49.868;8.646;2022-10-17T17:04:50;10.23;;;5.10;;
71207;SDS011;58938;49.868;8.646;2022-10-17T17:07:16;12.07;;;5.90;;
71207;SDS011;58938;49.868;8.646;2022-10-17T17:09:43;9.60;;;5.55;;
71207;SDS011;58938;49.868;8.646;2022-10-17T17:12:09;11.75;;;5.50;;